Burns Pinion Ridge Reserve, California Weather observations

Data are for 10 minute period ending at time listed.
 Day   Time   Solar   Ave.   Ave.  Ave.  Vector  Max.   Baro.   Total    
  of    of     Rad.   Air    Rel.  Wind   Wind   Wind  Press.  Precip.   
Year   Day            Temp.  Hum.  Speed  Dir.   Gust                    
2017   (PST)  Kw/m2    F      %     mph   deg.    mph    mb.     in.     
-------------------------------------------------------------------------
 144   18:10   0.10   76.5    15    6.2   240    13.7   868.1    0.00 
 144   18:20   0.07   74.9    16    8.8   222    21.4   868.0    0.00 
 144   18:30   0.04   73.9    16    9.6   224    16.7   867.9    0.00 
 144   18:40   0.01   72.7    17    7.8   223    13.1   868.0    0.00 
 144   18:50   0.00   71.7    18    8.5   226    17.0   868.0    0.00 
 144   19:00   0.00   70.8    18    5.3   225    12.5   867.9    0.00 
 144   19:10   0.00   70.1    18    6.9   207    13.9   867.9    0.00 
 144   19:20   0.00   69.6    18    7.6   200    12.3   867.9    0.00 
 144   19:30   0.00   69.3    18    8.6   204    14.2   868.0    0.00 
 144   19:40   0.00   68.8    19    7.9   208    13.1   868.0    0.00 
 144   19:50   0.00   68.6    18    8.4   203    12.6   868.0    0.00 
 144   20:00   0.00   68.5    18    7.3   189    13.2   867.9    0.00 
 144   20:10   0.00   67.9    18    6.9   193    11.2   867.9    0.00 
 144   20:20   0.00   68.4    17   10.6   207    15.1   867.8    0.00 
 144   20:30   0.00   68.5    18   10.4   208    13.7   867.9    0.00 
 144   20:40   0.00   68.5    17    9.3   212    13.5   868.0    0.00 
 144   20:50   0.00   68.4    17    8.2   209    12.1   868.0    0.00 
 144   21:00   0.00   68.2    17    8.0   204    13.2   868.0    0.00 
 144   21:10   0.00   68.0    16    8.2   198    12.5   867.9    0.00 
 144   21:20   0.00   68.1    15    9.5   209    13.7   867.9    0.00 
 144   21:30   0.00   68.3    14    9.6   214    14.3   867.9    0.00 
 144   21:40   0.00   68.0    14    6.9   205    13.9   867.9    0.00 
 144   21:50   0.00   67.7    14    8.3   210    14.8   867.9    0.00 
 144   22:00   0.00   67.5    15    9.1   206    14.6   867.8    0.00 
 144   22:10   0.00   67.4    15   10.1   208    14.7   867.8    0.00 
 144   22:20   0.00   66.9    17    8.1   207    12.7   867.9    0.00 
 144   22:30   0.00   66.7    17    9.2   205    14.0   867.8    0.00 
 144   22:40   0.00   66.5    17    8.1   208    11.0   867.7    0.00 
 144   22:50   0.00   66.7    16    8.7   210    14.2   867.6    0.00 
 144   23:00   0.00   66.9    16    9.8   206    13.9   867.6    0.00 
 144   23:10   0.00   66.8    16    9.0   210    13.3   867.6    0.00 
 144   23:20   0.00   66.4    16    7.2   213    11.6   867.7    0.00 
 144   23:30   0.00   66.1    16    7.8   212    12.2   867.7    0.00 
 144   23:40   0.00   66.1    16    8.3   207    11.2   867.6    0.00 
 144   23:50   0.00   65.9    16    7.9   207    10.5   867.5    0.00 
 145    0:00   0.00   65.2    17    6.5   213     9.0   867.4    0.00 
 145    0:10   0.00   64.7    17    5.4   214     8.0   867.3    0.00 
 145    0:20   0.00   64.3    18    5.9   217     8.2   867.3    0.00 
 145    0:30   0.00   64.3    18    6.2   215     8.6   867.2    0.00 
 145    0:40   0.00   64.4    17    6.6   210     9.1   867.1    0.00 
 145    0:50   0.00   64.9    17    6.6   211     9.2   867.1    0.00 
 145    1:00   0.00   64.3    17    7.4   215    11.8   867.1    0.00 
 145    1:10   0.00   64.2    18    8.8   211    11.8   867.0    0.00 
 145    1:20   0.00   64.0    18    8.4   208    11.9   866.9    0.00 
 145    1:30   0.00   63.5    18    8.2   205    11.6   866.9    0.00 
 145    1:40   0.00   63.3    19    8.0   206    11.0   866.7    0.00 
 145    1:50   0.00   62.9    19    7.9   210    11.7   866.7    0.00 
 145    2:00   0.00   62.7    19    6.7   216     9.3   866.9    0.00 
 145    2:10   0.00   62.3    20    6.8   210    10.1   866.7    0.00 
 145    2:20   0.00   62.8    19    8.1   206    12.3   866.7    0.00 
 145    2:30   0.00   62.8    19    8.3   208    12.2   866.7    0.00 
 145    2:40   0.00   62.9    19    9.1   205    12.7   866.7    0.00 
 145    2:50   0.00   62.9    19    9.2   203    12.1   866.6    0.00 
 145    3:00   0.00   62.4    20    6.4   220    10.9   866.6    0.00 
 145    3:10   0.00   62.2    19    6.3   224     9.3   866.5    0.00 
 145    3:20   0.00   62.5    18    6.9   213    11.5   866.4    0.00 
 145    3:30   0.00   63.3    17    5.6   226     9.4   866.4    0.00 
 145    3:40   0.00   63.6    16    5.9   216     8.6   866.3    0.00 
 145    3:50   0.00   63.4    16    6.8   194     9.9   866.4    0.00 
 145    4:00   0.00   61.8    17    6.6   186     9.5   866.4    0.00 
 145    4:10   0.00   61.4    16    6.7   179     9.5   866.4    0.00 
 145    4:20   0.00   61.6    16    6.6   176     9.2   866.4    0.00 
 145    4:30   0.00   61.1    15    7.6   172    10.5   866.4    0.00 
 145    4:40   0.00   61.6    15    7.8   172    11.8   866.4    0.00 
 145    4:50   0.01   62.3    13    8.1   181    11.5   866.4    0.00 
 145    5:00   0.01   62.8    12    5.4   199    10.4   866.4    0.00 
 145    5:10   0.01   63.0    12    5.7   189    11.0   866.5    0.00 
 145    5:20   0.07   63.2    12    6.1   191     9.6   866.7    0.00 
 145    5:30   0.11   65.2    11    6.4   181    10.0   866.8    0.00 
 145    5:40   0.14   67.4    10    5.9   187     8.8   866.9    0.00 
 145    5:50   0.17   68.5     9    6.0   189    10.5   867.0    0.00 
 145    6:00   0.20   69.2     9    5.9   184     9.1   867.1    0.00 
 145    6:10   0.24   70.5     9    5.2   177    10.2   867.1    0.00 
 145    6:20   0.27   71.7     8    5.4   177     8.3   867.2    0.00 
 145    6:30   0.31   72.6     8    5.1   170     8.8   867.3    0.00 
 145    6:40   0.35   73.1     8    6.4   179     9.9   867.4    0.00 
 145    6:50   0.38   72.9     8    6.3   179     9.3   867.5    0.00 
 145    7:00   0.42   73.3     8    6.3   185    11.2   867.6    0.00 
 145    7:10   0.46   73.5     8    6.6   186    10.4   867.7    0.00 
 145    7:20   0.49   74.2     8    6.8   198    11.2   867.7    0.00 
 145    7:30   0.53   74.0     8    7.9   187    12.8   867.7    0.00 
 145    7:40   0.56   74.8     7    8.0   192    15.0   867.8    0.00 
 145    7:50   0.59   74.6     8    8.1   211    12.8   867.9    0.00 
 145    8:00   0.63   75.3     7    7.2   186    12.9   867.9    0.00 
 145    8:10   0.66   76.8     7    7.1   185    13.7   868.0    0.00 
 145    8:20   0.69   76.0     7    8.2   201    15.2   868.1    0.00 
 145    8:30   0.72   76.2     7    8.1   184    13.2   868.2    0.00 
 145    8:40   0.76   76.9     6    7.8   198    13.1   868.1    0.00 
 145    8:50   0.78   76.0     6    9.4   211    14.4   868.1    0.00 
 145    9:00   0.81   76.9     6    8.8   210    13.7   868.1    0.00 
 145    9:10   0.84   78.5     6    7.3   195    13.4   868.1    0.00 
 145    9:20   0.86   78.9     6    6.2   216    13.5   868.1    0.00 
 145    9:30   0.89   79.3     5    7.4   207    13.1   868.2    0.00 
 145    9:40   0.91   79.3     5    7.0   197    14.8   868.2    0.00 
 145    9:50   0.93   80.2     5    7.8   214    16.4   868.2    0.00 
 145   10:00   0.94   80.9     5    7.7   209    14.4   868.1    0.00 
 145   10:10   0.96   81.8     5    5.9   230    15.4   868.1    0.00 
 145   10:20   0.98   82.1     5    5.2   246    12.1   868.1    0.00 
 145   10:30   0.99   80.4     5    8.1   219    19.3   868.1    0.00 
 145   10:40   1.00   81.8     5    6.9   172    14.7   868.0    0.00 
 145   10:50   1.01   82.9     5    8.1   153    18.8   868.0    0.00 
 145   11:00   1.02   82.4     5    8.1   165    19.6   868.0    0.00 
 145   11:10   1.03   82.3     6    8.7   161    21.5   867.9    0.00 
 145   11:20   1.03   82.0     6    9.1   163    19.6   867.9    0.00 
 145   11:30   1.03   82.4     7    6.3   181    14.8   867.8    0.00 
 145   11:40   1.03   82.2     6   10.7   153    21.5   867.8    0.00 
 145   11:50   1.03   81.7     6    8.5   154    18.2   867.7    0.00 
 145   12:00   1.01   81.3     6   10.6   168    24.1   867.7    0.00 
 145   12:10   1.03   80.7     6    9.3   179    24.6   867.7    0.00 
 145   12:20   1.03   80.9     6    8.2   182    22.9   867.8    0.00 
 145   12:30   1.02   81.2     6    7.9   185    16.4   867.7    0.00 
 145   12:40   1.01   80.9     7    9.8   174    21.5   867.7    0.00 
 145   12:50   1.00   80.8     7    8.3   168    17.5   867.6    0.00 
 145   13:00   0.99   79.5     7   11.9   183    28.4   867.5    0.00 
 145   13:10   0.98   79.9     7    9.4   172    21.9   867.5    0.00 
 145   13:20   0.97   80.8     7    9.4   168    23.4   867.3    0.00 
 145   13:30   0.95   80.2     7   10.6   163    25.3   867.2    0.00 
 145   13:40   0.94   80.5     7    7.6   180    17.8   867.2    0.00 
 145   13:50   0.92   80.4     8    7.3   173    20.2   867.1    0.00 
 145   14:00   0.90   80.0     9    8.8   197    19.7   867.2    0.00 
 145   14:10   0.88   79.6    10    7.3   178    22.2   867.1    0.00 
 145   14:20   0.85   81.1    10    7.0   174    16.1   867.0    0.00 
 145   14:30   0.83   81.1    10    7.5   183    16.1   866.9    0.00 
 145   14:40   0.80   80.4    10    9.1   192    19.9   866.8    0.00 
 145   14:50   0.77   80.6    11    6.4   180    21.0   866.8    0.00 
 145   15:00   0.74   79.5    11    9.0   203    17.9   866.7    0.00 
 145   15:10   0.71   78.8    12   10.4   204    22.1   866.7    0.00 
 145   15:20   0.69   78.3    13   10.1   216    20.3   866.6    0.00 
 145   15:30   0.65   78.8    13    6.4   204    14.3   866.5    0.00 
 145   15:40   0.62   77.1    14   11.1   212    21.6   866.5    0.00 
 145   15:50   0.58   77.0    14   10.2   206    19.7   866.5    0.00 
 145   16:00   0.55   77.3    15    7.2   207    16.5   866.5    0.00 
 145   16:10   0.52   76.3    15    9.5   204    19.6   866.5    0.00 
 145   16:20   0.48   74.8    16    9.6   197    21.2   866.5    0.00 
 145   16:30   0.45   75.4    16    8.0   202    19.1   866.4    0.00 
 145   16:40   0.41   75.3    16    7.7   198    22.6   866.3    0.00 
 145   16:50   0.38   75.0    17    7.1   202    16.8   866.3    0.00 
 145   17:00   0.34   74.0    18    8.9   201    17.5   866.3    0.00 
 145   17:10   0.30   73.5    20    6.1   193    14.4   866.4    0.00 
 145   17:20   0.26   72.6    20    8.6   199    22.5   866.4    0.00 
 145   17:30   0.23   72.2    21    6.7   214    17.3   866.4    0.00 
 145   17:40   0.20   71.7    22    5.1   225    11.4   866.6    0.00 
 145   17:50   0.16   71.3    22    5.0   256     9.6   866.9    0.00 
 145   18:00   0.13   70.8    23    4.2   226     9.9   867.0    0.00 

Return to Burns Pinion Ridge Reserve graphs page.


Western Regional Climate Center,wrcc@dri.edu